sensor_id;sensor_type;location;lat;lon;timestamp;temperature;humidity
12370;DHT22;6249;52.128;9.986;2023-03-09T00:03:13;2.10;99.90
12370;DHT22;6249;52.128;9.986;2023-03-09T00:06:36;2.10;99.90
12370;DHT22;6249;52.128;9.986;2023-03-09T00:09:59;2.10;99.90
12370;DHT22;6249;52.128;9.986;2023-03-09T00:13:22;2.20;99.90
12370;DHT22;6249;52.128;9.986;2023-03-09T00:16:43;2.20;99.90
12370;DHT22;6249;52.128;9.986;2023-03-09T00:20:06;2.10;99.90
12370;DHT22;6249;52.128;9.986;2023-03-09T00:23:42;2.10;99.90
12370;DHT22;6249;52.128;9.986;2023-03-09T00:27:05;2.10;99.90
12370;DHT22;6249;52.128;9.986;2023-03-09T00:30:26;2.20;99.90
12370;DHT22;6249;52.128;9.986;2023-03-09T00:33:47;2.10;99.90
12370;DHT22;6249;52.128;9.986;2023-03-09T00:37:08;2.10;99.90
12370;DHT22;6249;52.128;9.986;2023-03-09T00:40:29;2.10;99.90
12370;DHT22;6249;52.128;9.986;2023-03-09T00:43:50;2.10;99.90
12370;DHT22;6249;52.128;9.986;2023-03-09T00:47:12;2.20;99.90
12370;DHT22;6249;52.128;9.986;2023-03-09T00:50:33;2.30;99.90
12370;DHT22;6249;52.128;9.986;2023-03-09T00:53:55;2.20;99.90
12370;DHT22;6249;52.128;9.986;2023-03-09T00:57:16;2.10;99.90
12370;DHT22;6249;52.128;9.986;2023-03-09T01:00:38;2.00;99.90
12370;DHT22;6249;52.128;9.986;2023-03-09T01:03:59;2.10;99.90
12370;DHT22;6249;52.128;9.986;2023-03-09T01:07:20;2.20;99.90
12370;DHT22;6249;52.128;9.986;2023-03-09T01:10:43;2.10;99.90
12370;DHT22;6249;52.128;9.986;2023-03-09T01:14:09;2.30;99.90
12370;DHT22;6249;52.128;9.986;2023-03-09T01:17:29;2.50;99.90
12370;DHT22;6249;52.128;9.986;2023-03-09T01:20:50;2.50;99.90
12370;DHT22;6249;52.128;9.986;2023-03-09T01:24:10;2.40;99.90
12370;DHT22;6249;52.128;9.986;2023-03-09T01:27:31;2.40;99.90
12370;DHT22;6249;52.128;9.986;2023-03-09T01:30:52;2.40;99.90
12370;DHT22;6249;52.128;9.986;2023-03-09T01:34:14;2.50;99.90
12370;DHT22;6249;52.128;9.986;2023-03-09T01:37:37;2.50;99.90
12370;DHT22;6249;52.128;9.986;2023-03-09T01:41:02;2.50;99.90
12370;DHT22;6249;52.128;9.986;2023-03-09T01:44:25;2.60;99.90
12370;DHT22;6249;52.128;9.986;2023-03-09T01:47:51;2.50;99.90
12370;DHT22;6249;52.128;9.986;2023-03-09T01:51:12;2.60;99.90
12370;DHT22;6249;52.128;9.986;2023-03-09T01:58:04;2.40;99.90
12370;DHT22;6249;52.128;9.986;2023-03-09T02:01:26;2.30;99.90
12370;DHT22;6249;52.128;9.986;2023-03-09T02:04:52;2.30;99.90
12370;DHT22;6249;52.128;9.986;2023-03-09T02:08:13;2.30;99.90
12370;DHT22;6249;52.128;9.986;2023-03-09T02:11:36;2.20;99.90
12370;DHT22;6249;52.128;9.986;2023-03-09T02:14:59;2.10;99.90
12370;DHT22;6249;52.128;9.986;2023-03-09T02:18:20;2.10;99.90
12370;DHT22;6249;52.128;9.986;2023-03-09T02:21:52;2.20;99.90
12370;DHT22;6249;52.128;9.986;2023-03-09T02:25:41;2.30;99.90
12370;DHT22;6249;52.128;9.986;2023-03-09T02:29:06;2.30;99.90
12370;DHT22;6249;52.128;9.986;2023-03-09T02:32:33;2.30;99.90
12370;DHT22;6249;52.128;9.986;2023-03-09T02:35:59;2.10;99.90
12370;DHT22;6249;52.128;9.986;2023-03-09T02:39:38;2.10;99.90
12370;DHT22;6249;52.128;9.986;2023-03-09T02:43:02;2.00;99.90
12370;DHT22;6249;52.128;9.986;2023-03-09T02:46:24;2.20;99.90
12370;DHT22;6249;52.128;9.986;2023-03-09T02:49:44;2.10;99.90
12370;DHT22;6249;52.128;9.986;2023-03-09T02:53:07;2.10;99.90
12370;DHT22;6249;52.128;9.986;2023-03-09T02:56:27;2.00;99.90
12370;DHT22;6249;52.128;9.986;2023-03-09T02:59:50;2.20;99.90
12370;DHT22;6249;52.128;9.986;2023-03-09T03:03:13;2.30;99.90
12370;DHT22;6249;52.128;9.986;2023-03-09T03:06:36;2.20;99.90
12370;DHT22;6249;52.128;9.986;2023-03-09T03:09:57;2.10;99.90
12370;DHT22;6249;52.128;9.986;2023-03-09T03:13:22;2.20;99.90
12370;DHT22;6249;52.128;9.986;2023-03-09T03:16:42;2.10;99.90
12370;DHT22;6249;52.128;9.986;2023-03-09T03:20:06;2.10;99.90
12370;DHT22;6249;52.128;9.986;2023-03-09T03:23:32;2.20;99.90
12370;DHT22;6249;52.128;9.986;2023-03-09T03:26:55;2.20;99.90
12370;DHT22;6249;52.128;9.986;2023-03-09T03:30:19;2.30;99.90
12370;DHT22;6249;52.128;9.986;2023-03-09T03:33:42;2.30;99.90
12370;DHT22;6249;52.128;9.986;2023-03-09T03:37:02;2.20;99.90
12370;DHT22;6249;52.128;9.986;2023-03-09T03:40:28;2.30;99.90
12370;DHT22;6249;52.128;9.986;2023-03-09T03:43:51;2.20;99.90
12370;DHT22;6249;52.128;9.986;2023-03-09T03:47:17;2.10;99.90
12370;DHT22;6249;52.128;9.986;2023-03-09T03:50:40;2.10;99.90
12370;DHT22;6249;52.128;9.986;2023-03-09T03:54:00;2.10;99.90
12370;DHT22;6249;52.128;9.986;2023-03-09T03:57:23;2.00;99.90
12370;DHT22;6249;52.128;9.986;2023-03-09T04:00:44;1.90;99.90
12370;DHT22;6249;52.128;9.986;2023-03-09T04:04:05;1.80;99.90
12370;DHT22;6249;52.128;9.986;2023-03-09T04:07:27;1.80;99.90
12370;DHT22;6249;52.128;9.986;2023-03-09T04:10:48;1.80;99.90
12370;DHT22;6249;52.128;9.986;2023-03-09T04:14:09;1.70;99.90
12370;DHT22;6249;52.128;9.986;2023-03-09T04:17:30;1.70;99.90
12370;DHT22;6249;52.128;9.986;2023-03-09T04:20:51;1.80;99.90
12370;DHT22;6249;52.128;9.986;2023-03-09T04:24:11;1.80;99.90
12370;DHT22;6249;52.128;9.986;2023-03-09T04:27:32;1.80;99.90
12370;DHT22;6249;52.128;9.986;2023-03-09T04:30:53;1.70;99.90
12370;DHT22;6249;52.128;9.986;2023-03-09T04:34:16;1.70;99.90
12370;DHT22;6249;52.128;9.986;2023-03-09T04:37:37;1.60;99.90
12370;DHT22;6249;52.128;9.986;2023-03-09T04:40:57;1.50;99.90
12370;DHT22;6249;52.128;9.986;2023-03-09T04:44:20;1.60;99.90
12370;DHT22;6249;52.128;9.986;2023-03-09T04:47:41;1.60;99.90
12370;DHT22;6249;52.128;9.986;2023-03-09T04:51:01;1.60;99.90
12370;DHT22;6249;52.128;9.986;2023-03-09T04:54:25;1.60;99.90
12370;DHT22;6249;52.128;9.986;2023-03-09T04:57:45;1.60;99.90
12370;DHT22;6249;52.128;9.986;2023-03-09T05:01:08;1.50;99.90
12370;DHT22;6249;52.128;9.986;2023-03-09T05:04:34;1.50;99.90
12370;DHT22;6249;52.128;9.986;2023-03-09T05:07:58;1.50;99.90
12370;DHT22;6249;52.128;9.986;2023-03-09T05:11:19;1.50;99.90
12370;DHT22;6249;52.128;9.986;2023-03-09T05:14:40;1.60;99.90
12370;DHT22;6249;52.128;9.986;2023-03-09T05:18:00;1.60;99.90
12370;DHT22;6249;52.128;9.986;2023-03-09T05:21:21;1.60;99.90
12370;DHT22;6249;52.128;9.986;2023-03-09T05:24:42;1.60;99.90
12370;DHT22;6249;52.128;9.986;2023-03-09T05:28:03;1.50;99.90
12370;DHT22;6249;52.128;9.986;2023-03-09T05:31:25;1.50;99.90
12370;DHT22;6249;52.128;9.986;2023-03-09T05:34:46;1.50;99.90
12370;DHT22;6249;52.128;9.986;2023-03-09T05:38:06;1.70;99.90
12370;DHT22;6249;52.128;9.986;2023-03-09T05:41:29;1.60;99.90
12370;DHT22;6249;52.128;9.986;2023-03-09T05:44:52;1.60;99.90
12370;DHT22;6249;52.128;9.986;2023-03-09T05:48:13;1.70;99.90
12370;DHT22;6249;52.128;9.986;2023-03-09T05:51:33;1.60;99.90
12370;DHT22;6249;52.128;9.986;2023-03-09T05:54:56;1.60;99.90
12370;DHT22;6249;52.128;9.986;2023-03-09T05:58:17;1.60;99.90
12370;DHT22;6249;52.128;9.986;2023-03-09T06:01:40;1.60;99.90
12370;DHT22;6249;52.128;9.986;2023-03-09T06:05:01;1.50;99.90
12370;DHT22;6249;52.128;9.986;2023-03-09T06:08:21;1.80;99.90
12370;DHT22;6249;52.128;9.986;2023-03-09T06:11:45;1.80;99.90
12370;DHT22;6249;52.128;9.986;2023-03-09T06:15:11;1.70;99.90
12370;DHT22;6249;52.128;9.986;2023-03-09T06:18:34;1.70;99.90
12370;DHT22;6249;52.128;9.986;2023-03-09T06:21:57;1.60;99.90
12370;DHT22;6249;52.128;9.986;2023-03-09T06:25:20;1.60;99.90
12370;DHT22;6249;52.128;9.986;2023-03-09T06:28:45;1.60;99.90
12370;DHT22;6249;52.128;9.986;2023-03-09T06:32:06;1.70;99.90
12370;DHT22;6249;52.128;9.986;2023-03-09T06:35:29;1.70;99.90
12370;DHT22;6249;52.128;9.986;2023-03-09T06:38:49;1.80;99.90
12370;DHT22;6249;52.128;9.986;2023-03-09T06:42:10;2.00;99.90
12370;DHT22;6249;52.128;9.986;2023-03-09T06:45:33;2.10;99.90
12370;DHT22;6249;52.128;9.986;2023-03-09T06:48:56;2.10;99.90
12370;DHT22;6249;52.128;9.986;2023-03-09T06:52:17;2.20;99.90
12370;DHT22;6249;52.128;9.986;2023-03-09T06:55:40;2.30;99.90
12370;DHT22;6249;52.128;9.986;2023-03-09T06:59:00;2.20;99.90
12370;DHT22;6249;52.128;9.986;2023-03-09T07:02:21;2.20;99.90
12370;DHT22;6249;52.128;9.986;2023-03-09T07:05:44;2.10;99.90
12370;DHT22;6249;52.128;9.986;2023-03-09T07:09:05;2.30;99.90
12370;DHT22;6249;52.128;9.986;2023-03-09T07:12:25;2.30;99.90
12370;DHT22;6249;52.128;9.986;2023-03-09T07:15:46;2.50;99.90
12370;DHT22;6249;52.128;9.986;2023-03-09T07:19:09;2.50;99.90
12370;DHT22;6249;52.128;9.986;2023-03-09T07:22:30;2.50;99.90
12370;DHT22;6249;52.128;9.986;2023-03-09T07:25:53;2.50;99.90
12370;DHT22;6249;52.128;9.986;2023-03-09T07:29:16;2.50;99.90
12370;DHT22;6249;52.128;9.986;2023-03-09T07:32:43;2.60;99.90
12370;DHT22;6249;52.128;9.986;2023-03-09T07:36:05;2.60;99.90
12370;DHT22;6249;52.128;9.986;2023-03-09T07:39:26;2.60;99.90
12370;DHT22;6249;52.128;9.986;2023-03-09T07:42:50;2.70;99.90
12370;DHT22;6249;52.128;9.986;2023-03-09T07:46:14;3.30;99.90
12370;DHT22;6249;52.128;9.986;2023-03-09T07:49:35;2.60;99.90
12370;DHT22;6249;52.128;9.986;2023-03-09T07:53:00;2.60;99.90
12370;DHT22;6249;52.128;9.986;2023-03-09T07:56:21;2.70;99.90
12370;DHT22;6249;52.128;9.986;2023-03-09T07:59:44;2.80;99.90
12370;DHT22;6249;52.128;9.986;2023-03-09T08:03:04;2.90;99.90
12370;DHT22;6249;52.128;9.986;2023-03-09T08:06:27;3.00;99.90
12370;DHT22;6249;52.128;9.986;2023-03-09T08:09:48;3.20;99.90
12370;DHT22;6249;52.128;9.986;2023-03-09T08:13:11;3.20;99.90
12370;DHT22;6249;52.128;9.986;2023-03-09T08:16:34;3.30;99.90
12370;DHT22;6249;52.128;9.986;2023-03-09T08:19:57;3.40;99.90
12370;DHT22;6249;52.128;9.986;2023-03-09T08:23:18;3.50;99.90
12370;DHT22;6249;52.128;9.986;2023-03-09T08:26:41;3.50;99.90
12370;DHT22;6249;52.128;9.986;2023-03-09T08:30:03;3.50;99.90
12370;DHT22;6249;52.128;9.986;2023-03-09T08:33:26;3.40;99.90
12370;DHT22;6249;52.128;9.986;2023-03-09T08:36:47;3.50;99.90
12370;DHT22;6249;52.128;9.986;2023-03-09T08:40:11;3.60;99.90
12370;DHT22;6249;52.128;9.986;2023-03-09T08:43:32;3.50;99.90
12370;DHT22;6249;52.128;9.986;2023-03-09T08:46:55;3.50;99.90
12370;DHT22;6249;52.128;9.986;2023-03-09T08:50:16;3.60;99.90
12370;DHT22;6249;52.128;9.986;2023-03-09T08:53:41;3.50;99.90
12370;DHT22;6249;52.128;9.986;2023-03-09T08:57:01;3.40;99.90
12370;DHT22;6249;52.128;9.986;2023-03-09T09:00:22;3.40;99.90
12370;DHT22;6249;52.128;9.986;2023-03-09T09:03:43;3.40;99.90
12370;DHT22;6249;52.128;9.986;2023-03-09T09:07:03;3.30;99.90
12370;DHT22;6249;52.128;9.986;2023-03-09T09:10:24;3.30;99.90
12370;DHT22;6249;52.128;9.986;2023-03-09T09:13:51;3.30;99.90
12370;DHT22;6249;52.128;9.986;2023-03-09T09:17:12;3.30;99.90
12370;DHT22;6249;52.128;9.986;2023-03-09T09:20:33;3.30;99.90
12370;DHT22;6249;52.128;9.986;2023-03-09T09:23:53;3.40;99.90
12370;DHT22;6249;52.128;9.986;2023-03-09T09:27:17;3.40;99.90
12370;DHT22;6249;52.128;9.986;2023-03-09T09:30:37;4.40;99.90
12370;DHT22;6249;52.128;9.986;2023-03-09T09:33:58;3.40;99.90
12370;DHT22;6249;52.128;9.986;2023-03-09T09:37:21;3.50;99.90
12370;DHT22;6249;52.128;9.986;2023-03-09T09:40:42;3.60;99.90
12370;DHT22;6249;52.128;9.986;2023-03-09T09:44:12;3.60;99.90
12370;DHT22;6249;52.128;9.986;2023-03-09T09:47:34;3.80;99.90
12370;DHT22;6249;52.128;9.986;2023-03-09T10:01:45;4.00;99.90
12370;DHT22;6249;52.128;9.986;2023-03-09T10:05:26;4.30;99.90
12370;DHT22;6249;52.128;9.986;2023-03-09T10:08:55;4.40;99.90
12370;DHT22;6249;52.128;9.986;2023-03-09T10:12:18;4.40;99.90
12370;DHT22;6249;52.128;9.986;2023-03-09T10:15:42;4.40;99.90
12370;DHT22;6249;52.128;9.986;2023-03-09T10:19:20;4.40;99.90
12370;DHT22;6249;52.128;9.986;2023-03-09T10:22:51;4.40;99.90
12370;DHT22;6249;52.128;9.986;2023-03-09T10:26:43;4.50;99.90
12370;DHT22;6249;52.128;9.986;2023-03-09T10:33:41;4.60;99.90
12370;DHT22;6249;52.128;9.986;2023-03-09T10:37:09;4.50;99.90
12370;DHT22;6249;52.128;9.986;2023-03-09T10:40:40;4.40;99.90
12370;DHT22;6249;52.128;9.986;2023-03-09T10:44:04;4.40;99.90
12370;DHT22;6249;52.128;9.986;2023-03-09T10:47:26;4.40;99.90
12370;DHT22;6249;52.128;9.986;2023-03-09T10:51:04;4.50;99.90
12370;DHT22;6249;52.128;9.986;2023-03-09T10:54:32;4.50;99.90
12370;DHT22;6249;52.128;9.986;2023-03-09T10:58:10;4.50;99.90
12370;DHT22;6249;52.128;9.986;2023-03-09T11:04:54;4.70;99.90
12370;DHT22;6249;52.128;9.986;2023-03-09T11:08:25;4.70;99.90
12370;DHT22;6249;52.128;9.986;2023-03-09T11:11:49;4.90;99.90
12370;DHT22;6249;52.128;9.986;2023-03-09T11:18:36;4.80;99.90
12370;DHT22;6249;52.128;9.986;2023-03-09T11:32:49;4.70;99.90
12370;DHT22;6249;52.128;9.986;2023-03-09T11:36:19;4.80;99.90
12370;DHT22;6249;52.128;9.986;2023-03-09T11:40:05;5.10;99.90
12370;DHT22;6249;52.128;9.986;2023-03-09T11:43:34;5.20;99.90
12370;DHT22;6249;52.128;9.986;2023-03-09T11:47:03;5.20;99.90
12370;DHT22;6249;52.128;9.986;2023-03-09T11:50:37;5.20;99.90
12370;DHT22;6249;52.128;9.986;2023-03-09T11:57:30;4.90;99.90
12370;DHT22;6249;52.128;9.986;2023-03-09T12:01:03;4.90;99.90
12370;DHT22;6249;52.128;9.986;2023-03-09T12:04:28;3.70;99.90
12370;DHT22;6249;52.128;9.986;2023-03-09T12:11:44;5.20;99.90
12370;DHT22;6249;52.128;9.986;2023-03-09T12:19:12;5.10;99.90
12370;DHT22;6249;52.128;9.986;2023-03-09T12:22:32;4.80;99.90
12370;DHT22;6249;52.128;9.986;2023-03-09T12:25:56;4.80;99.90
12370;DHT22;6249;52.128;9.986;2023-03-09T12:29:21;4.70;99.90
12370;DHT22;6249;52.128;9.986;2023-03-09T12:32:43;4.70;99.90
12370;DHT22;6249;52.128;9.986;2023-03-09T12:36:24;4.60;99.90
12370;DHT22;6249;52.128;9.986;2023-03-09T12:39:45;4.60;99.90
12370;DHT22;6249;52.128;9.986;2023-03-09T12:46:51;4.50;99.90
12370;DHT22;6249;52.128;9.986;2023-03-09T12:54:19;4.60;99.90
12370;DHT22;6249;52.128;9.986;2023-03-09T12:57:41;4.60;99.90
12370;DHT22;6249;52.128;9.986;2023-03-09T13:04:36;4.50;99.90
12370;DHT22;6249;52.128;9.986;2023-03-09T13:07:59;4.50;99.90
12370;DHT22;6249;52.128;9.986;2023-03-09T13:29:08;4.50;99.90
12370;DHT22;6249;52.128;9.986;2023-03-09T13:36:19;4.50;99.90
12370;DHT22;6249;52.128;9.986;2023-03-09T13:39:39;4.60;99.90
12370;DHT22;6249;52.128;9.986;2023-03-09T13:43:19;4.60;99.90
12370;DHT22;6249;52.128;9.986;2023-03-09T13:46:45;4.50;99.90
12370;DHT22;6249;52.128;9.986;2023-03-09T13:50:16;4.50;99.90
12370;DHT22;6249;52.128;9.986;2023-03-09T13:53:46;4.40;99.90
12370;DHT22;6249;52.128;9.986;2023-03-09T13:57:16;4.40;99.90
12370;DHT22;6249;52.128;9.986;2023-03-09T14:04:16;4.30;99.90
12370;DHT22;6249;52.128;9.986;2023-03-09T14:07:44;4.30;99.90
12370;DHT22;6249;52.128;9.986;2023-03-09T14:11:06;4.30;99.90
12370;DHT22;6249;52.128;9.986;2023-03-09T14:14:30;4.30;99.90
12370;DHT22;6249;52.128;9.986;2023-03-09T14:17:54;4.30;99.90
12370;DHT22;6249;52.128;9.986;2023-03-09T14:21:34;4.30;99.90
12370;DHT22;6249;52.128;9.986;2023-03-09T14:24:56;4.40;99.90
12370;DHT22;6249;52.128;9.986;2023-03-09T14:28:28;4.50;99.90
12370;DHT22;6249;52.128;9.986;2023-03-09T14:33:20;4.50;99.90
12370;DHT22;6249;52.128;9.986;2023-03-09T14:36:14;4.50;99.90
12370;DHT22;6249;52.128;9.986;2023-03-09T14:39:37;4.40;99.90
12370;DHT22;6249;52.128;9.986;2023-03-09T14:46:45;4.40;99.90
12370;DHT22;6249;52.128;9.986;2023-03-09T14:50:06;4.30;99.90
12370;DHT22;6249;52.128;9.986;2023-03-09T14:53:29;4.30;99.90
12370;DHT22;6249;52.128;9.986;2023-03-09T14:56:50;4.40;99.90
12370;DHT22;6249;52.128;9.986;2023-03-09T15:00:16;4.30;99.90
12370;DHT22;6249;52.128;9.986;2023-03-09T15:03:40;4.30;99.90
12370;DHT22;6249;52.128;9.986;2023-03-09T15:07:01;4.30;99.90
12370;DHT22;6249;52.128;9.986;2023-03-09T15:10:23;4.50;99.90
12370;DHT22;6249;52.128;9.986;2023-03-09T15:13:47;4.70;99.90
12370;DHT22;6249;52.128;9.986;2023-03-09T15:17:14;4.40;99.90
12370;DHT22;6249;52.128;9.986;2023-03-09T15:20:34;4.40;99.90
12370;DHT22;6249;52.128;9.986;2023-03-09T15:23:55;4.20;99.90
12370;DHT22;6249;52.128;9.986;2023-03-09T15:27:15;4.30;99.90
12370;DHT22;6249;52.128;9.986;2023-03-09T15:30:36;4.40;99.90
12370;DHT22;6249;52.128;9.986;2023-03-09T15:33:58;4.40;99.90
12370;DHT22;6249;52.128;9.986;2023-03-09T15:37:20;4.30;99.90
12370;DHT22;6249;52.128;9.986;2023-03-09T15:40:44;4.20;99.90
12370;DHT22;6249;52.128;9.986;2023-03-09T15:44:04;4.10;99.90
12370;DHT22;6249;52.128;9.986;2023-03-09T15:47:25;4.10;99.90
12370;DHT22;6249;52.128;9.986;2023-03-09T15:50:52;4.30;99.90
12370;DHT22;6249;52.128;9.986;2023-03-09T15:54:15;4.70;99.90
12370;DHT22;6249;52.128;9.986;2023-03-09T15:57:35;4.20;99.90
12370;DHT22;6249;52.128;9.986;2023-03-09T16:01:00;4.10;99.90
12370;DHT22;6249;52.128;9.986;2023-03-09T16:04:25;4.10;99.90
12370;DHT22;6249;52.128;9.986;2023-03-09T16:07:45;4.00;99.90
12370;DHT22;6249;52.128;9.986;2023-03-09T16:11:06;4.00;99.90
12370;DHT22;6249;52.128;9.986;2023-03-09T16:14:26;3.80;99.90
12370;DHT22;6249;52.128;9.986;2023-03-09T16:17:49;3.70;99.90
12370;DHT22;6249;52.128;9.986;2023-03-09T16:21:10;3.70;99.90
12370;DHT22;6249;52.128;9.986;2023-03-09T16:24:31;3.70;99.90
12370;DHT22;6249;52.128;9.986;2023-03-09T16:27:51;3.50;99.90
12370;DHT22;6249;52.128;9.986;2023-03-09T16:31:17;3.30;99.90
12370;DHT22;6249;52.128;9.986;2023-03-09T16:34:38;3.20;99.90
12370;DHT22;6249;52.128;9.986;2023-03-09T16:37:58;3.20;99.90
12370;DHT22;6249;52.128;9.986;2023-03-09T16:41:19;3.20;99.90
12370;DHT22;6249;52.128;9.986;2023-03-09T16:44:47;3.10;99.90
12370;DHT22;6249;52.128;9.986;2023-03-09T16:48:10;3.00;99.90
12370;DHT22;6249;52.128;9.986;2023-03-09T16:51:30;3.00;99.90
12370;DHT22;6249;52.128;9.986;2023-03-09T16:55:02;3.00;99.90
12370;DHT22;6249;52.128;9.986;2023-03-09T16:58:22;2.90;99.90
12370;DHT22;6249;52.128;9.986;2023-03-09T17:01:45;2.80;99.90
12370;DHT22;6249;52.128;9.986;2023-03-09T17:05:14;2.80;99.90
12370;DHT22;6249;52.128;9.986;2023-03-09T17:08:37;2.70;99.90
12370;DHT22;6249;52.128;9.986;2023-03-09T17:11:58;2.60;99.90
12370;DHT22;6249;52.128;9.986;2023-03-09T17:15:20;2.60;99.90
12370;DHT22;6249;52.128;9.986;2023-03-09T17:18:44;2.50;99.90
12370;DHT22;6249;52.128;9.986;2023-03-09T17:22:07;2.50;99.90
12370;DHT22;6249;52.128;9.986;2023-03-09T17:25:30;2.50;99.90
12370;DHT22;6249;52.128;9.986;2023-03-09T17:28:50;2.50;99.90
12370;DHT22;6249;52.128;9.986;2023-03-09T17:32:11;2.50;99.90
12370;DHT22;6249;52.128;9.986;2023-03-09T17:35:38;2.40;99.90
12370;DHT22;6249;52.128;9.986;2023-03-09T17:38:58;2.40;99.90
12370;DHT22;6249;52.128;9.986;2023-03-09T17:42:19;2.40;99.90
12370;DHT22;6249;52.128;9.986;2023-03-09T17:45:40;3.00;99.90
12370;DHT22;6249;52.128;9.986;2023-03-09T17:49:05;2.40;99.90
12370;DHT22;6249;52.128;9.986;2023-03-09T17:52:26;2.30;99.90
12370;DHT22;6249;52.128;9.986;2023-03-09T17:55:52;2.20;99.90
12370;DHT22;6249;52.128;9.986;2023-03-09T17:59:12;2.20;99.90
12370;DHT22;6249;52.128;9.986;2023-03-09T18:02:38;2.30;99.90
12370;DHT22;6249;52.128;9.986;2023-03-09T18:06:00;2.30;99.90
12370;DHT22;6249;52.128;9.986;2023-03-09T18:09:25;2.30;99.90
12370;DHT22;6249;52.128;9.986;2023-03-09T18:12:46;2.20;99.90
12370;DHT22;6249;52.128;9.986;2023-03-09T18:16:10;2.20;99.90
12370;DHT22;6249;52.128;9.986;2023-03-09T18:19:30;2.10;99.90
12370;DHT22;6249;52.128;9.986;2023-03-09T18:22:53;2.30;99.90
12370;DHT22;6249;52.128;9.986;2023-03-09T18:26:19;2.10;99.90
12370;DHT22;6249;52.128;9.986;2023-03-09T18:29:40;2.10;99.90
12370;DHT22;6249;52.128;9.986;2023-03-09T18:33:02;2.10;99.90
12370;DHT22;6249;52.128;9.986;2023-03-09T18:36:23;2.10;99.90
12370;DHT22;6249;52.128;9.986;2023-03-09T18:39:44;2.30;99.90
12370;DHT22;6249;52.128;9.986;2023-03-09T18:43:04;2.30;99.90
12370;DHT22;6249;52.128;9.986;2023-03-09T18:46:25;2.20;99.90
12370;DHT22;6249;52.128;9.986;2023-03-09T18:49:48;2.20;99.90
12370;DHT22;6249;52.128;9.986;2023-03-09T18:53:09;2.10;99.90
12370;DHT22;6249;52.128;9.986;2023-03-09T18:56:30;2.10;99.90
12370;DHT22;6249;52.128;9.986;2023-03-09T18:59:51;2.10;99.90
12370;DHT22;6249;52.128;9.986;2023-03-09T19:03:14;2.30;99.90
12370;DHT22;6249;52.128;9.986;2023-03-09T19:06:37;2.40;99.90
12370;DHT22;6249;52.128;9.986;2023-03-09T19:09:58;2.40;99.90
12370;DHT22;6249;52.128;9.986;2023-03-09T19:13:19;2.30;99.90
12370;DHT22;6249;52.128;9.986;2023-03-09T19:16:44;2.20;99.90
12370;DHT22;6249;52.128;9.986;2023-03-09T19:20:07;2.20;99.90
12370;DHT22;6249;52.128;9.986;2023-03-09T19:23:28;2.20;99.90
12370;DHT22;6249;52.128;9.986;2023-03-09T19:26:48;2.30;99.90
12370;DHT22;6249;52.128;9.986;2023-03-09T19:30:09;2.20;99.90
12370;DHT22;6249;52.128;9.986;2023-03-09T19:33:33;2.30;99.90
12370;DHT22;6249;52.128;9.986;2023-03-09T19:36:56;2.30;99.90
12370;DHT22;6249;52.128;9.986;2023-03-09T19:40:19;2.40;99.90
12370;DHT22;6249;52.128;9.986;2023-03-09T19:43:39;2.30;99.90
12370;DHT22;6249;52.128;9.986;2023-03-09T19:47:00;2.40;99.90
12370;DHT22;6249;52.128;9.986;2023-03-09T19:50:21;2.30;99.90
12370;DHT22;6249;52.128;9.986;2023-03-09T19:57:04;2.30;99.90
12370;DHT22;6249;52.128;9.986;2023-03-09T20:00:24;2.70;99.90
12370;DHT22;6249;52.128;9.986;2023-03-09T20:03:46;2.30;99.90
12370;DHT22;6249;52.128;9.986;2023-03-09T20:07:07;2.30;99.90
12370;DHT22;6249;52.128;9.986;2023-03-09T20:10:28;2.30;99.90
12370;DHT22;6249;52.128;9.986;2023-03-09T20:13:53;2.30;99.90
12370;DHT22;6249;52.128;9.986;2023-03-09T20:17:14;2.40;99.90
12370;DHT22;6249;52.128;9.986;2023-03-09T20:20:37;2.50;99.90
12370;DHT22;6249;52.128;9.986;2023-03-09T20:23:59;2.50;99.90
12370;DHT22;6249;52.128;9.986;2023-03-09T20:27:20;2.50;99.90
12370;DHT22;6249;52.128;9.986;2023-03-09T20:30:41;2.60;99.90
12370;DHT22;6249;52.128;9.986;2023-03-09T20:34:05;2.60;99.90
12370;DHT22;6249;52.128;9.986;2023-03-09T20:37:28;2.60;99.90
12370;DHT22;6249;52.128;9.986;2023-03-09T20:40:51;2.70;99.90
12370;DHT22;6249;52.128;9.986;2023-03-09T20:44:12;2.80;99.90
12370;DHT22;6249;52.128;9.986;2023-03-09T20:47:35;2.80;99.90
12370;DHT22;6249;52.128;9.986;2023-03-09T20:50:57;2.70;99.90
12370;DHT22;6249;52.128;9.986;2023-03-09T20:54:20;2.60;99.90
12370;DHT22;6249;52.128;9.986;2023-03-09T20:57:46;2.60;99.90
12370;DHT22;6249;52.128;9.986;2023-03-09T21:01:12;2.50;99.90
12370;DHT22;6249;52.128;9.986;2023-03-09T21:04:37;2.50;99.90
12370;DHT22;6249;52.128;9.986;2023-03-09T21:08:03;2.60;99.90
12370;DHT22;6249;52.128;9.986;2023-03-09T21:11:26;2.80;99.90
12370;DHT22;6249;52.128;9.986;2023-03-09T21:14:47;2.80;99.90
12370;DHT22;6249;52.128;9.986;2023-03-09T21:18:08;2.80;99.90
12370;DHT22;6249;52.128;9.986;2023-03-09T21:21:29;2.80;99.90
12370;DHT22;6249;52.128;9.986;2023-03-09T21:24:50;2.70;99.90
12370;DHT22;6249;52.128;9.986;2023-03-09T21:28:11;2.60;99.90
12370;DHT22;6249;52.128;9.986;2023-03-09T21:31:34;2.70;99.90
12370;DHT22;6249;52.128;9.986;2023-03-09T21:34:55;3.50;99.90
12370;DHT22;6249;52.128;9.986;2023-03-09T21:38:15;2.70;99.90
12370;DHT22;6249;52.128;9.986;2023-03-09T21:41:36;2.70;99.90
12370;DHT22;6249;52.128;9.986;2023-03-09T21:44:59;2.70;99.90
12370;DHT22;6249;52.128;9.986;2023-03-09T21:48:19;2.70;99.90
12370;DHT22;6249;52.128;9.986;2023-03-09T21:51:43;2.70;99.90
12370;DHT22;6249;52.128;9.986;2023-03-09T21:55:05;2.70;99.90
12370;DHT22;6249;52.128;9.986;2023-03-09T21:58:28;2.70;99.90
12370;DHT22;6249;52.128;9.986;2023-03-09T22:01:49;2.90;99.90
12370;DHT22;6249;52.128;9.986;2023-03-09T22:05:10;2.60;99.90
12370;DHT22;6249;52.128;9.986;2023-03-09T22:08:30;2.60;99.90
12370;DHT22;6249;52.128;9.986;2023-03-09T22:11:51;2.60;99.90
12370;DHT22;6249;52.128;9.986;2023-03-09T22:15:14;2.60;99.90
12370;DHT22;6249;52.128;9.986;2023-03-09T22:18:34;2.60;99.90
12370;DHT22;6249;52.128;9.986;2023-03-09T22:21:57;2.50;99.90
12370;DHT22;6249;52.128;9.986;2023-03-09T22:25:20;2.60;99.90
12370;DHT22;6249;52.128;9.986;2023-03-09T22:28:41;2.60;99.90
12370;DHT22;6249;52.128;9.986;2023-03-09T22:32:02;2.70;99.90
12370;DHT22;6249;52.128;9.986;2023-03-09T22:35:22;2.70;99.90
12370;DHT22;6249;52.128;9.986;2023-03-09T22:38:44;2.70;99.90
12370;DHT22;6249;52.128;9.986;2023-03-09T22:42:04;2.70;99.90
12370;DHT22;6249;52.128;9.986;2023-03-09T22:45:25;2.70;99.90
12370;DHT22;6249;52.128;9.986;2023-03-09T22:48:47;2.60;99.90
12370;DHT22;6249;52.128;9.986;2023-03-09T22:52:08;2.70;99.90
12370;DHT22;6249;52.128;9.986;2023-03-09T22:55:28;2.60;99.90
12370;DHT22;6249;52.128;9.986;2023-03-09T22:58:49;2.60;99.90
12370;DHT22;6249;52.128;9.986;2023-03-09T23:02:10;2.60;99.90
12370;DHT22;6249;52.128;9.986;2023-03-09T23:05:31;2.60;99.90
12370;DHT22;6249;52.128;9.986;2023-03-09T23:08:54;2.60;99.90
12370;DHT22;6249;52.128;9.986;2023-03-09T23:12:15;2.70;99.90
12370;DHT22;6249;52.128;9.986;2023-03-09T23:15:36;2.70;99.90
12370;DHT22;6249;52.128;9.986;2023-03-09T23:18:57;2.70;99.90
12370;DHT22;6249;52.128;9.986;2023-03-09T23:22:17;2.70;99.90
12370;DHT22;6249;52.128;9.986;2023-03-09T23:25:38;2.70;99.90
12370;DHT22;6249;52.128;9.986;2023-03-09T23:28:59;2.70;99.90
12370;DHT22;6249;52.128;9.986;2023-03-09T23:32:22;2.80;99.90
12370;DHT22;6249;52.128;9.986;2023-03-09T23:35:43;2.70;99.90
12370;DHT22;6249;52.128;9.986;2023-03-09T23:39:03;2.70;99.90